Solitude, Indiana
Current Conditions -  °F | °C
As of 10:15 AM on Monday 22 Dec 2014 (Local Time) from KCUL Reporting Station
Overcast Overcast  
Wind Chill:   Ceiling: 1400
Heat Index:   Visibility: 7mi
Dew Point:   Wind: 8mph
Humidity: 88%   Direction: 120°ESE
Pressure: 29.84"   Gusts: NA
Location:  37.9469°N, 87.9016°W
Report Text: KCUL 221615Z AUTO 12007KT 7SM OVC014 08/06 A2984 RMK AO2 T00800061
Loading
Personal Weather Stations






























Interactive Weather Map New forecast layout! Learn more

10-Day Weather Forecast

Advertisements
Track Severe Weather on mobile